createdAt,value
2022-10-02T00:02:02.052Z,13.87
2022-10-02T00:07:10.321Z,12.10
2022-10-02T00:12:18.528Z,13.67
2022-10-02T00:17:27.662Z,15.13
2022-10-02T00:22:42.138Z,13.57
2022-10-02T00:28:03.467Z,14.17
2022-10-02T00:33:27.029Z,14.70
2022-10-02T00:38:48.374Z,16.33
2022-10-02T00:44:09.643Z,15.00
2022-10-02T00:49:47.022Z,18.00
2022-10-02T00:54:58.808Z,16.17
2022-10-02T01:00:14.226Z,12.30
2022-10-02T01:05:16.970Z,17.60
2022-10-02T01:10:27.755Z,15.83
2022-10-02T01:15:43.884Z,16.60
2022-10-02T01:20:50.126Z,17.23
2022-10-02T01:25:53.198Z,16.57
2022-10-02T01:31:02.754Z,14.70
2022-10-02T01:36:08.803Z,18.07
2022-10-02T01:41:12.414Z,16.50
2022-10-02T01:46:37.154Z,15.73
2022-10-02T01:52:09.590Z,13.43
2022-10-02T01:57:31.895Z,18.33
2022-10-02T02:02:47.214Z,12.97
2022-10-02T02:08:19.287Z,14.43
2022-10-02T02:13:35.792Z,14.57
2022-10-02T02:18:41.352Z,13.00
2022-10-02T02:23:45.860Z,18.50
2022-10-02T02:28:56.435Z,12.07
2022-10-02T02:34:04.399Z,13.47
2022-10-02T02:39:18.975Z,18.17
2022-10-02T02:44:32.504Z,15.83
2022-10-02T02:49:55.378Z,12.77
2022-10-02T02:55:08.138Z,15.50
2022-10-02T03:00:14.520Z,12.63
2022-10-02T03:05:19.158Z,14.10
2022-10-02T03:10:32.671Z,14.83
2022-10-02T03:15:51.174Z,14.93
2022-10-02T03:21:04.283Z,15.33
2022-10-02T03:26:14.002Z,11.13
2022-10-02T03:31:19.394Z,13.00
2022-10-02T03:36:24.350Z,13.57
2022-10-02T03:41:27.044Z,11.33
2022-10-02T03:46:29.732Z,11.13
2022-10-02T03:51:32.499Z,8.90
2022-10-02T03:56:55.204Z,11.43
2022-10-02T04:02:01.877Z,10.70
2022-10-02T04:07:11.150Z,10.07
2022-10-02T04:12:22.519Z,10.87
2022-10-02T04:17:43.960Z,10.67
2022-10-02T04:22:52.718Z,6.97
2022-10-02T04:28:15.941Z,8.47
2022-10-02T04:33:20.141Z,8.87
2022-10-02T04:38:43.999Z,8.67
2022-10-02T04:44:22.594Z,8.67
2022-10-02T04:49:46.884Z,8.60
2022-10-02T04:54:55.412Z,8.47
2022-10-02T05:00:24.860Z,8.53
2022-10-02T05:06:02.522Z,6.67
2022-10-02T05:11:46.477Z,7.50
2022-10-02T05:17:04.593Z,7.13
2022-10-02T05:22:29.252Z,7.47
2022-10-02T05:28:10.560Z,6.33
2022-10-02T05:33:31.712Z,5.70
2022-10-02T05:38:54.526Z,6.70
2022-10-02T05:44:17.700Z,6.53
2022-10-02T05:49:36.920Z,6.80
2022-10-02T05:54:45.119Z,7.93
2022-10-02T05:59:57.100Z,7.40
2022-10-02T06:05:11.426Z,5.20
2022-10-02T06:10:19.677Z,6.47
2022-10-02T06:15:59.793Z,6.03
2022-10-02T06:21:10.381Z,5.03
2022-10-02T06:26:22.220Z,5.10
2022-10-02T06:31:38.960Z,3.47
2022-10-02T06:37:07.671Z,4.23
2022-10-02T06:42:10.245Z,3.00
2022-10-02T06:47:35.497Z,3.67
2022-10-02T06:52:58.530Z,4.20
2022-10-02T06:58:23.097Z,4.97
2022-10-02T07:03:44.654Z,5.60
2022-10-02T07:09:05.470Z,3.40
2022-10-02T07:14:08.047Z,3.73
2022-10-02T07:19:19.586Z,3.27
2022-10-02T07:25:10.212Z,3.93
2022-10-02T07:30:16.207Z,4.60
2022-10-02T07:35:21.917Z,5.60
2022-10-02T07:41:02.359Z,8.13
2022-10-02T07:46:16.034Z,5.83
2022-10-02T07:51:47.555Z,4.03
2022-10-02T07:56:52.354Z,5.30
2022-10-02T08:01:56.051Z,6.13
2022-10-02T08:07:03.902Z,4.40
2022-10-02T08:12:28.835Z,5.27
2022-10-02T08:17:34.527Z,5.27
2022-10-02T08:22:42.770Z,5.33
2022-10-02T08:28:04.633Z,5.60
2022-10-02T08:33:19.804Z,4.90
2022-10-02T08:38:35.575Z,6.97
2022-10-02T08:44:06.354Z,5.00
2022-10-02T08:49:46.479Z,4.77
2022-10-02T08:55:15.527Z,4.73
2022-10-02T09:00:25.761Z,3.60
2022-10-02T09:05:47.330Z,3.30
2022-10-02T09:11:11.386Z,7.97
2022-10-02T09:16:39.881Z,7.07
2022-10-02T09:21:54.649Z,6.07
2022-10-02T09:27:22.787Z,5.67
2022-10-02T09:32:47.189Z,4.03
2022-10-02T09:38:08.916Z,5.63
2022-10-02T09:43:23.574Z,4.57
2022-10-02T09:48:36.293Z,5.47
2022-10-02T09:54:08.930Z,3.83
2022-10-02T09:59:48.773Z,3.93
2022-10-02T10:05:12.971Z,5.83
2022-10-02T10:10:20.872Z,4.63
2022-10-02T10:15:41.582Z,3.93
2022-10-02T10:21:06.325Z,3.73
2022-10-02T10:26:50.279Z,5.37
2022-10-02T10:32:12.669Z,7.23
2022-10-02T10:37:56.169Z,4.37
2022-10-02T10:43:31.994Z,5.03
2022-10-02T10:48:49.722Z,6.27
2022-10-02T10:54:14.099Z,7.27
2022-10-02T10:59:54.148Z,6.40
2022-10-02T11:05:27.546Z,4.83
2022-10-02T11:10:34.634Z,5.37
2022-10-02T11:15:46.157Z,5.57
2022-10-02T11:21:03.878Z,4.13
2022-10-02T11:26:15.576Z,6.27
2022-10-02T11:32:03.754Z,3.57
2022-10-02T11:37:29.166Z,3.97
2022-10-02T11:42:42.013Z,4.50
2022-10-02T11:48:18.602Z,4.60
2022-10-02T11:53:43.369Z,4.10
2022-10-02T11:59:29.559Z,4.13
2022-10-02T12:04:41.778Z,3.87
2022-10-02T12:09:57.931Z,3.63
2022-10-02T12:15:12.075Z,4.93
2022-10-02T12:20:59.322Z,4.47
2022-10-02T12:26:39.261Z,5.03
2022-10-02T12:31:55.688Z,3.73
2022-10-02T12:37:25.893Z,3.60
2022-10-02T12:42:55.206Z,4.20
2022-10-02T12:48:09.856Z,3.03
2022-10-02T12:53:31.452Z,5.53
2022-10-02T12:59:11.708Z,3.57
2022-10-02T13:04:43.749Z,4.80
2022-10-02T13:09:58.202Z,7.07
2022-10-02T13:15:35.739Z,2.90
2022-10-02T13:20:50.208Z,4.23
2022-10-02T13:26:00.661Z,5.17
2022-10-02T13:31:38.815Z,4.60
2022-10-02T13:37:02.776Z,6.03
2022-10-02T13:42:20.325Z,4.90
2022-10-02T13:47:57.310Z,4.13
2022-10-02T13:53:20.751Z,5.73
2022-10-02T13:58:26.725Z,4.27
2022-10-02T14:03:44.503Z,3.83
2022-10-02T14:09:19.390Z,4.77
2022-10-02T14:14:38.560Z,3.30
2022-10-02T14:19:48.267Z,5.37
2022-10-02T14:25:26.326Z,3.93
2022-10-02T14:30:51.520Z,4.10
2022-10-02T14:36:11.798Z,6.40
2022-10-02T14:41:31.817Z,3.80
2022-10-02T14:47:01.349Z,2.83
2022-10-02T14:52:22.739Z,5.20
2022-10-02T14:58:13.186Z,4.50
2022-10-02T15:03:18.551Z,4.03
2022-10-02T15:08:34.042Z,2.90
2022-10-02T15:13:46.518Z,4.67
2022-10-02T15:18:55.808Z,5.17
2022-10-02T15:24:11.940Z,3.40
2022-10-02T15:29:40.562Z,4.50
2022-10-02T15:35:07.218Z,5.10
2022-10-02T15:40:47.577Z,4.77
2022-10-02T15:46:12.761Z,6.07
2022-10-02T15:51:15.526Z,5.93
2022-10-02T15:56:41.133Z,7.47
2022-10-02T16:02:00.517Z,6.67
2022-10-02T16:07:21.758Z,5.43
2022-10-02T16:12:49.858Z,8.27
2022-10-02T16:18:18.846Z,6.80
2022-10-02T16:23:44.173Z,8.33
2022-10-02T16:28:46.937Z,8.67
2022-10-02T16:34:23.274Z,5.10
2022-10-02T16:39:42.162Z,6.80
2022-10-02T16:45:28.689Z,5.97
2022-10-02T16:50:46.639Z,7.90
2022-10-02T16:56:05.118Z,6.03
2022-10-02T17:01:26.830Z,6.33
2022-10-02T17:06:36.328Z,5.07
2022-10-02T17:11:54.883Z,5.50
2022-10-02T17:17:08.524Z,5.97
2022-10-02T17:22:38.218Z,7.17
2022-10-02T17:28:04.789Z,6.70
2022-10-02T17:33:13.608Z,6.87
2022-10-02T17:38:24.094Z,6.73
2022-10-02T17:43:50.888Z,7.73
2022-10-02T17:49:20.769Z,5.03
2022-10-02T17:55:01.430Z,6.40
2022-10-02T18:00:13.484Z,7.20
2022-10-02T18:05:41.603Z,9.53
2022-10-02T18:11:02.405Z,7.50
2022-10-02T18:16:26.774Z,9.27
2022-10-02T18:21:58.426Z,8.37
2022-10-02T18:27:13.259Z,7.07
2022-10-02T18:32:37.324Z,6.93
2022-10-02T18:37:50.084Z,9.57
2022-10-02T18:43:30.218Z,8.53
2022-10-02T18:48:49.645Z,9.33
2022-10-02T18:54:11.658Z,10.30
2022-10-02T18:59:49.922Z,8.33
2022-10-02T19:05:04.080Z,11.33
2022-10-02T19:10:27.063Z,10.53
2022-10-02T19:15:32.040Z,8.60
2022-10-02T19:20:56.233Z,10.40
2022-10-02T19:26:05.921Z,11.40
2022-10-02T19:31:12.239Z,21.53
2022-10-02T19:36:19.586Z,14.00
2022-10-02T19:41:23.317Z,11.73
2022-10-02T19:46:53.433Z,10.17
2022-10-02T19:51:57.021Z,10.50
2022-10-02T19:57:06.261Z,9.37
2022-10-02T20:02:36.883Z,10.27
2022-10-02T20:07:40.764Z,12.33
2022-10-02T20:12:53.224Z,11.30
2022-10-02T20:17:55.834Z,13.47
2022-10-02T20:23:01.648Z,12.10
2022-10-02T20:28:14.785Z,11.57
2022-10-02T20:33:44.814Z,12.47
2022-10-02T20:38:53.283Z,13.60
2022-10-02T20:44:06.062Z,11.70
2022-10-02T20:49:43.937Z,9.63
2022-10-02T20:55:13.899Z,10.70
2022-10-02T21:00:21.930Z,10.13
2022-10-02T21:05:53.541Z,9.17
2022-10-02T21:12:04.009Z,6.23
2022-10-02T21:17:27.972Z,8.03
2022-10-02T21:23:09.076Z,9.07
2022-10-02T21:28:33.091Z,9.07
2022-10-02T21:33:41.263Z,7.87
2022-10-02T21:38:58.983Z,7.47
2022-10-02T21:44:33.352Z,12.07
2022-10-02T21:50:07.034Z,10.00
2022-10-02T21:55:42.314Z,11.57
2022-10-02T22:00:57.481Z,7.50
2022-10-02T22:06:59.742Z,8.50
2022-10-02T22:12:08.145Z,10.93
2022-10-02T22:17:34.458Z,10.47
2022-10-02T22:23:07.988Z,12.43
2022-10-02T22:28:24.271Z,10.03
2022-10-02T22:33:58.790Z,8.63
2022-10-02T22:39:09.620Z,9.70
2022-10-02T22:44:46.050Z,9.73
2022-10-02T22:49:57.666Z,8.50
2022-10-02T22:55:00.214Z,9.10
2022-10-02T23:00:20.510Z,10.67
2022-10-02T23:05:42.069Z,8.53
2022-10-02T23:10:50.881Z,9.37
2022-10-02T23:16:22.262Z,11.33
2022-10-02T23:21:51.222Z,12.60
2022-10-02T23:27:03.499Z,11.87
2022-10-02T23:32:20.146Z,8.83
2022-10-02T23:37:46.242Z,10.60
2022-10-02T23:42:58.198Z,6.60
2022-10-02T23:48:06.018Z,6.83
2022-10-02T23:53:18.260Z,5.53
2022-10-02T23:58:36.089Z,8.47
